createdAt,value
2017-01-20T00:00:13.831Z,16.73
2017-01-20T00:01:24.445Z,16.63
2017-01-20T00:02:34.174Z,16.67
2017-01-20T00:03:44.544Z,16.63
2017-01-20T00:04:54.268Z,16.61
2017-01-20T00:06:04.466Z,16.63
2017-01-20T00:07:14.191Z,16.64
2017-01-20T00:08:23.916Z,16.61
2017-01-20T00:09:33.241Z,16.6
2017-01-20T00:10:43.423Z,16.57
2017-01-20T00:11:53.592Z,16.5
2017-01-20T00:13:04.193Z,16.56
2017-01-20T00:14:13.926Z,16.57
2017-01-20T00:15:23.708Z,16.45
2017-01-20T00:16:33.436Z,16.49
2017-01-20T00:17:44.042Z,16.52
2017-01-20T00:18:53.771Z,16.39
2017-01-20T00:20:03.524Z,16.35
2017-01-20T00:21:13.309Z,16.49
2017-01-20T00:22:23.047Z,16.43
2017-01-20T00:23:32.776Z,16.48
2017-01-20T00:24:42.504Z,16.41
2017-01-20T00:25:52.230Z,16.45
2017-01-20T00:27:02.007Z,16.42
2017-01-20T00:28:11.733Z,16.46
2017-01-20T00:29:21.461Z,16.41
2017-01-20T00:30:31.191Z,16.38
2017-01-20T00:31:40.928Z,16.34
2017-01-20T00:32:51.149Z,16.33
2017-01-20T00:34:01.318Z,16.28
2017-01-20T00:35:11.488Z,16.24
2017-01-20T00:36:21.665Z,16.35
2017-01-20T00:37:31.838Z,16.39
2017-01-20T00:38:42.051Z,16.31
2017-01-20T00:39:51.773Z,16.33
2017-01-20T00:41:01.506Z,16.28
2017-01-20T00:42:12.139Z,16.25
2017-01-20T00:43:21.876Z,16.28
2017-01-20T00:44:31.657Z,16.35
2017-01-20T00:45:42.299Z,16.28
2017-01-20T00:46:52.023Z,16.31
2017-01-20T00:48:01.753Z,16.34
2017-01-20T00:49:11.934Z,16.34
2017-01-20T00:50:21.711Z,16.3
2017-01-20T00:51:31.000Z,16.24
2017-01-20T00:52:40.730Z,16.21
2017-01-20T00:53:50.455Z,16.23
2017-01-20T00:55:00.183Z,16.25
2017-01-20T00:56:09.961Z,16.2
2017-01-20T00:57:20.130Z,16.23
2017-01-20T00:58:29.855Z,16.23
2017-01-20T00:59:39.588Z,16.2
2017-01-20T01:00:49.322Z,16.2
2017-01-20T01:01:59.595Z,16.15
2017-01-20T01:03:09.336Z,16.14
2017-01-20T01:04:19.069Z,16.17
2017-01-20T01:05:28.798Z,16.11
2017-01-20T01:06:38.973Z,16.12
2017-01-20T01:07:48.760Z,16.11
2017-01-20T01:08:58.930Z,16.08
2017-01-20T01:10:08.663Z,16.07
2017-01-20T01:11:18.388Z,16.05
2017-01-20T01:12:27.701Z,16.08
2017-01-20T01:13:37.926Z,16.04
2017-01-20T01:14:48.095Z,16.12
2017-01-20T01:15:57.820Z,16.12
2017-01-20T01:17:07.111Z,16.05
2017-01-20T01:18:16.842Z,16.01
2017-01-20T01:19:26.766Z,16.07
2017-01-20T01:20:36.056Z,16.01
2017-01-20T01:21:46.225Z,16.07
2017-01-20T01:22:56.398Z,16.04
2017-01-20T01:24:06.579Z,15.97
2017-01-20T01:25:16.360Z,16.02
2017-01-20T01:26:26.541Z,16.01
2017-01-20T01:27:36.266Z,16.02
2017-01-20T01:28:45.999Z,16
2017-01-20T01:29:55.732Z,15.93
2017-01-20T01:31:05.061Z,15.96
2017-01-20T01:32:14.791Z,15.94
2017-01-20T01:33:24.516Z,15.96
2017-01-20T01:34:34.241Z,15.93
2017-01-20T01:35:43.974Z,15.97
2017-01-20T01:36:53.755Z,15.97
2017-01-20T01:38:03.924Z,15.87
2017-01-20T01:39:13.653Z,15.84
2017-01-20T01:40:24.270Z,15.8
2017-01-20T01:41:34.008Z,15.84
2017-01-20T01:42:43.789Z,15.86
2017-01-20T01:43:53.516Z,15.89
2017-01-20T01:45:03.247Z,15.92
2017-01-20T01:46:12.976Z,15.9
2017-01-20T01:47:22.706Z,15.86
2017-01-20T01:48:32.483Z,15.82
2017-01-20T01:49:42.216Z,15.87
2017-01-20T01:50:52.377Z,15.9
2017-01-20T01:52:02.102Z,15.86
2017-01-20T01:53:11.835Z,15.82
2017-01-20T01:54:22.048Z,15.72
2017-01-20T01:55:31.326Z,15.86
2017-01-20T01:56:41.495Z,15.75
2017-01-20T01:57:50.784Z,15.8
2017-01-20T01:59:00.949Z,15.8
2017-01-20T02:00:10.286Z,15.75
2017-01-20T02:01:20.455Z,15.74
2017-01-20T02:02:30.640Z,15.75
2017-01-20T02:03:40.362Z,15.75
2017-01-20T02:04:50.087Z,15.72
2017-01-20T02:05:59.868Z,15.72
2017-01-20T02:07:09.593Z,15.75
2017-01-20T02:08:19.327Z,15.71
2017-01-20T02:09:29.504Z,15.72
2017-01-20T02:10:39.677Z,15.67
2017-01-20T02:11:49.454Z,15.67
2017-01-20T02:12:59.180Z,15.68
2017-01-20T02:14:09.349Z,15.62
2017-01-20T02:15:19.518Z,15.69
2017-01-20T02:16:29.251Z,15.65
2017-01-20T02:17:39.028Z,15.68
2017-01-20T02:18:48.758Z,15.62
2017-01-20T02:19:58.935Z,15.67
2017-01-20T02:21:08.664Z,15.65
2017-01-20T02:22:18.393Z,15.67
2017-01-20T02:23:28.618Z,15.6
2017-01-20T02:24:38.356Z,15.57
2017-01-20T02:25:48.528Z,15.59
2017-01-20T02:26:58.706Z,15.64
2017-01-20T02:28:08.435Z,15.51
2017-01-20T02:29:18.212Z,15.64
2017-01-20T02:30:27.945Z,15.51
2017-01-20T02:31:37.671Z,15.62
2017-01-20T02:32:47.848Z,15.57
2017-01-20T02:33:58.018Z,15.5
2017-01-20T02:35:07.810Z,15.54
2017-01-20T02:36:17.563Z,15.56
2017-01-20T02:37:27.397Z,15.56
2017-01-20T02:38:37.570Z,15.57
2017-01-20T02:39:47.303Z,15.57
2017-01-20T02:40:57.088Z,15.56
2017-01-20T02:42:06.821Z,15.47
2017-01-20T02:43:16.546Z,15.5
2017-01-20T02:44:26.715Z,15.46
2017-01-20T02:45:35.992Z,15.54
2017-01-20T02:46:45.320Z,15.39
2017-01-20T02:47:55.034Z,15.41
2017-01-20T02:49:04.755Z,15.38
2017-01-20T02:50:14.472Z,15.44
2017-01-20T02:51:24.629Z,15.41
2017-01-20T02:52:34.398Z,15.49
2017-01-20T02:53:44.120Z,15.41
2017-01-20T02:54:53.401Z,15.41
2017-01-20T02:56:02.682Z,15.39
2017-01-20T02:57:12.843Z,15.46
2017-01-20T02:58:23.492Z,15.43
2017-01-20T02:59:32.773Z,15.36
2017-01-20T03:00:42.930Z,15.46
2017-01-20T03:01:52.648Z,15.38
2017-01-20T03:03:03.245Z,15.39
2017-01-20T03:04:13.450Z,15.36
2017-01-20T03:05:23.167Z,15.34
2017-01-20T03:06:32.904Z,15.38
2017-01-20T03:07:42.618Z,15.36
2017-01-20T03:08:51.898Z,15.38
2017-01-20T03:10:01.669Z,15.27
2017-01-20T03:11:10.945Z,15.31
2017-01-20T03:12:21.098Z,15.34
2017-01-20T03:13:31.263Z,15.29
2017-01-20T03:14:41.412Z,15.31
2017-01-20T03:15:51.818Z,15.35
2017-01-20T03:17:01.971Z,15.27
2017-01-20T03:18:11.693Z,15.34
2017-01-20T03:19:21.417Z,15.34
2017-01-20T03:20:30.702Z,15.35
2017-01-20T03:21:40.468Z,15.23
2017-01-20T03:22:50.189Z,15.35
2017-01-20T03:24:00.782Z,15.2
2017-01-20T03:25:10.495Z,15.32
2017-01-20T03:26:19.772Z,15.25
2017-01-20T03:27:29.541Z,15.34
2017-01-20T03:28:39.722Z,15.25
2017-01-20T03:29:50.308Z,15.27
2017-01-20T03:31:00.025Z,15.23
2017-01-20T03:32:10.178Z,15.21
2017-01-20T03:33:20.976Z,15.28
2017-01-20T03:34:30.693Z,15.17
2017-01-20T03:35:39.973Z,15.14
2017-01-20T03:36:50.559Z,15.27
2017-01-20T03:38:00.272Z,15.17
2017-01-20T03:39:09.597Z,15.14
2017-01-20T03:40:18.875Z,15.19
2017-01-20T03:41:29.900Z,15.16
2017-01-20T03:42:39.613Z,15.14
2017-01-20T03:43:49.326Z,15.17
2017-01-20T03:44:59.088Z,15.14
2017-01-20T03:46:09.245Z,15.16
2017-01-20T03:47:19.838Z,15.19
2017-01-20T03:48:30.024Z,15.16
2017-01-20T03:49:39.301Z,15.23
2017-01-20T03:50:48.633Z,15.14
2017-01-20T03:51:58.351Z,15.27
2017-01-20T03:53:08.064Z,15.16
2017-01-20T03:54:17.337Z,15.17
2017-01-20T03:55:27.055Z,15.19
2017-01-20T03:56:37.252Z,15.21
2017-01-20T03:57:46.973Z,15.14
2017-01-20T03:58:57.126Z,15.16
2017-01-20T04:00:06.839Z,15.13
2017-01-20T04:01:16.553Z,15.13
2017-01-20T04:02:26.322Z,15.14
2017-01-20T04:03:36.911Z,15.17
2017-01-20T04:04:47.068Z,15.17
2017-01-20T04:05:56.781Z,15.14
2017-01-20T04:07:06.942Z,15.1
2017-01-20T04:08:16.707Z,15.11
2017-01-20T04:09:26.421Z,15.13
2017-01-20T04:10:36.138Z,15.09
2017-01-20T04:11:46.291Z,15.09
2017-01-20T04:12:56.448Z,15.07
2017-01-20T04:14:05.773Z,15.06
2017-01-20T04:15:15.482Z,15.02
2017-01-20T04:16:26.075Z,15.1
2017-01-20T04:17:36.256Z,15.02
2017-01-20T04:18:46.409Z,15.03
2017-01-20T04:19:56.619Z,15.03
2017-01-20T04:21:06.343Z,15.02
2017-01-20T04:22:16.932Z,14.99
2017-01-20T04:23:26.650Z,15.1
2017-01-20T04:24:36.378Z,15.02
2017-01-20T04:25:47.024Z,15.06
2017-01-20T04:26:57.176Z,14.99
2017-01-20T04:28:06.898Z,15.03
2017-01-20T04:29:17.058Z,14.96
2017-01-20T04:30:27.215Z,15.1
2017-01-20T04:31:37.421Z,14.96
2017-01-20T04:32:48.018Z,14.96
2017-01-20T04:33:57.759Z,14.96
2017-01-20T04:35:07.032Z,14.92
2017-01-20T04:36:17.180Z,14.94
2017-01-20T04:37:26.951Z,15.01
2017-01-20T04:38:36.675Z,15.01
2017-01-20T04:39:46.391Z,14.96
2017-01-20T04:40:56.105Z,14.94
2017-01-20T04:42:06.698Z,14.91
2017-01-20T04:43:16.903Z,14.98
2017-01-20T04:44:26.617Z,14.95
2017-01-20T04:45:35.894Z,14.95
2017-01-20T04:46:45.171Z,14.94
2017-01-20T04:47:54.912Z,14.94
2017-01-20T04:49:05.121Z,14.98
2017-01-20T04:50:14.399Z,14.96
2017-01-20T04:51:24.548Z,14.94
2017-01-20T04:52:34.269Z,14.94
2017-01-20T04:53:44.427Z,14.96
2017-01-20T04:54:54.632Z,14.94
2017-01-20T04:56:04.813Z,14.86
2017-01-20T04:57:14.546Z,14.91
2017-01-20T04:58:23.831Z,14.84
2017-01-20T04:59:33.985Z,14.91
2017-01-20T05:00:44.193Z,14.88
2017-01-20T05:01:54.351Z,14.73
2017-01-20T05:03:04.508Z,14.84
2017-01-20T05:04:14.666Z,14.86
2017-01-20T05:05:24.823Z,14.83
2017-01-20T05:06:34.684Z,14.86
2017-01-20T05:07:44.840Z,14.83
2017-01-20T05:08:54.119Z,14.84
2017-01-20T05:10:04.272Z,14.72
2017-01-20T05:11:13.977Z,14.89
2017-01-20T05:12:23.307Z,14.78
2017-01-20T05:13:32.591Z,14.89
2017-01-20T05:14:42.745Z,14.77
2017-01-20T05:15:52.902Z,14.78
2017-01-20T05:17:02.624Z,14.78
2017-01-20T05:18:12.493Z,14.8
2017-01-20T05:19:22.202Z,14.81
2017-01-20T05:20:31.919Z,14.8
2017-01-20T05:21:42.073Z,14.73
2017-01-20T05:22:51.790Z,14.73
2017-01-20T05:24:01.560Z,14.8
2017-01-20T05:25:11.712Z,14.72
2017-01-20T05:26:22.306Z,14.69
2017-01-20T05:27:32.023Z,14.69
2017-01-20T05:28:42.180Z,14.73
2017-01-20T05:29:51.509Z,14.68
2017-01-20T05:31:02.099Z,14.78
2017-01-20T05:32:12.256Z,14.72
2017-01-20T05:33:21.969Z,14.7
2017-01-20T05:34:31.687Z,14.77
2017-01-20T05:35:41.892Z,14.72
2017-01-20T05:36:52.049Z,14.75
2017-01-20T05:38:02.638Z,14.77
2017-01-20T05:39:11.916Z,14.73
2017-01-20T05:40:21.632Z,14.72
2017-01-20T05:41:30.962Z,14.7
2017-01-20T05:42:41.119Z,14.65
2017-01-20T05:43:50.840Z,14.73
2017-01-20T05:45:00.562Z,14.7
2017-01-20T05:46:10.711Z,14.72
2017-01-20T05:47:20.924Z,14.72
2017-01-20T05:48:31.085Z,14.72
2017-01-20T05:49:40.799Z,14.7
2017-01-20T05:50:50.520Z,14.7
2017-01-20T05:52:00.245Z,14.68
2017-01-20T05:53:10.450Z,14.7
2017-01-20T05:54:20.608Z,14.72
2017-01-20T05:55:29.909Z,14.68
2017-01-20T05:56:39.634Z,14.69
2017-01-20T05:57:49.344Z,14.68
2017-01-20T05:58:58.702Z,14.68
2017-01-20T06:00:08.858Z,14.78
2017-01-20T06:01:19.003Z,14.7
2017-01-20T06:02:29.592Z,14.6
2017-01-20T06:03:39.309Z,14.72
2017-01-20T06:04:48.638Z,14.72
2017-01-20T06:05:57.924Z,14.73
2017-01-20T06:07:07.641Z,14.61
2017-01-20T06:08:17.794Z,14.72
2017-01-20T06:09:28.387Z,14.72
2017-01-20T06:10:39.024Z,14.7
2017-01-20T06:11:49.174Z,14.64
2017-01-20T06:12:59.335Z,14.72
2017-01-20T06:14:09.048Z,14.68
2017-01-20T06:15:18.766Z,14.68
2017-01-20T06:16:28.530Z,14.6
2017-01-20T06:17:39.120Z,14.65
2017-01-20T06:18:49.273Z,14.64
2017-01-20T06:19:58.990Z,14.72
2017-01-20T06:21:08.707Z,14.64
2017-01-20T06:22:18.064Z,14.61
2017-01-20T06:23:27.782Z,14.64
2017-01-20T06:24:37.502Z,14.64
2017-01-20T06:25:47.223Z,14.7
2017-01-20T06:26:56.509Z,14.7
2017-01-20T06:28:06.714Z,14.7
2017-01-20T06:29:16.867Z,14.61
2017-01-20T06:30:27.465Z,14.64
2017-01-20T06:31:36.745Z,14.61
2017-01-20T06:32:46.903Z,14.55
2017-01-20T06:33:56.664Z,14.6
2017-01-20T06:35:07.257Z,14.6
2017-01-20T06:36:17.842Z,14.6
2017-01-20T06:37:27.996Z,14.57
2017-01-20T06:38:38.157Z,14.58
2017-01-20T06:39:48.806Z,14.6
2017-01-20T06:40:59.399Z,14.55
2017-01-20T06:42:08.672Z,14.55
2017-01-20T06:43:19.261Z,14.51
2017-01-20T06:44:29.854Z,14.45
2017-01-20T06:45:40.071Z,14.51
2017-01-20T06:46:49.349Z,14.43
2017-01-20T06:47:59.062Z,14.43
2017-01-20T06:49:08.339Z,14.47
2017-01-20T06:50:18.492Z,14.45
2017-01-20T06:51:28.266Z,14.4
2017-01-20T06:52:38.423Z,14.45
2017-01-20T06:53:47.696Z,14.4
2017-01-20T06:54:57.441Z,14.47
2017-01-20T06:56:07.162Z,14.45
2017-01-20T06:57:17.367Z,14.45
2017-01-20T06:58:27.089Z,14.4
2017-01-20T06:59:37.241Z,14.39
2017-01-20T07:00:46.959Z,14.39
2017-01-20T07:01:57.116Z,14.36
2017-01-20T07:03:06.885Z,14.27
2017-01-20T07:04:16.603Z,14.37
2017-01-20T07:05:26.756Z,14.35
2017-01-20T07:06:36.472Z,14.28
2017-01-20T07:07:47.066Z,14.33
2017-01-20T07:08:56.987Z,14.35
2017-01-20T07:10:07.140Z,14.35
2017-01-20T07:11:17.293Z,14.36
2017-01-20T07:12:27.443Z,14.24
2017-01-20T07:13:37.164Z,14.22
2017-01-20T07:14:47.369Z,14.28
2017-01-20T07:15:57.523Z,14.28
2017-01-20T07:17:08.120Z,14.27
2017-01-20T07:18:17.836Z,14.27
2017-01-20T07:19:27.550Z,14.17
2017-01-20T07:20:37.755Z,14.21
2017-01-20T07:21:47.912Z,14.14
2017-01-20T07:22:58.066Z,14.14
2017-01-20T07:24:08.655Z,14.2
2017-01-20T07:25:18.800Z,14.2
2017-01-20T07:26:29.005Z,14.18
2017-01-20T07:27:38.727Z,14.1
2017-01-20T07:28:48.448Z,14.17
2017-01-20T07:29:57.725Z,14.18
2017-01-20T07:31:07.882Z,14.17
2017-01-20T07:32:18.087Z,14.09
2017-01-20T07:33:28.240Z,14.18
2017-01-20T07:34:38.833Z,14.14
2017-01-20T07:35:48.547Z,14.18
2017-01-20T07:36:57.828Z,14.14
2017-01-20T07:38:07.597Z,14.17
2017-01-20T07:39:17.314Z,14.17
2017-01-20T07:40:27.904Z,14.03
2017-01-20T07:41:38.053Z,14.12
2017-01-20T07:42:48.642Z,14.14
2017-01-20T07:43:57.971Z,14.17
2017-01-20T07:45:07.685Z,14.09
2017-01-20T07:46:16.962Z,14.12
2017-01-20T07:47:27.115Z,14.15
2017-01-20T07:48:36.832Z,14.14
2017-01-20T07:49:47.034Z,14.12
2017-01-20T07:50:56.759Z,14.15
2017-01-20T07:52:06.476Z,14.06
2017-01-20T07:53:16.621Z,14.09
2017-01-20T07:54:26.334Z,14.09
2017-01-20T07:55:36.099Z,14.1
2017-01-20T07:56:46.252Z,14.06
2017-01-20T07:57:56.409Z,14.06
2017-01-20T07:59:05.682Z,14.09
2017-01-20T08:00:16.711Z,14.09
2017-01-20T08:01:27.356Z,14.07
2017-01-20T08:02:37.069Z,14.07
2017-01-20T08:03:46.787Z,14.09
2017-01-20T08:04:56.959Z,14.07
2017-01-20T08:06:06.677Z,14.12
2017-01-20T08:07:16.881Z,14.12
2017-01-20T08:08:26.599Z,14.09
2017-01-20T08:09:37.188Z,14.15
2017-01-20T08:10:46.901Z,14.07
2017-01-20T08:11:56.182Z,14.1
2017-01-20T08:13:05.955Z,14.06
2017-01-20T08:14:15.227Z,14.1
2017-01-20T08:15:25.457Z,14.14
2017-01-20T08:16:34.733Z,14.09
2017-01-20T08:17:44.883Z,14.14
2017-01-20T08:18:54.659Z,14.04
2017-01-20T08:20:05.248Z,14.17
2017-01-20T08:21:15.845Z,14.07
2017-01-20T08:22:25.998Z,14.14
2017-01-20T08:23:35.711Z,14.15
2017-01-20T08:24:45.636Z,14.04
2017-01-20T08:25:55.355Z,14.12
2017-01-20T08:27:05.513Z,14
2017-01-20T08:28:15.227Z,14.14
2017-01-20T08:29:24.514Z,14.06
2017-01-20T08:30:34.869Z,14.17
2017-01-20T08:31:44.590Z,14.12
2017-01-20T08:32:54.766Z,14.12
2017-01-20T08:34:04.919Z,14.09
2017-01-20T08:35:14.193Z,14.07
2017-01-20T08:36:24.393Z,14.07
2017-01-20T08:37:33.670Z,14.17
2017-01-20T08:38:43.827Z,14.07
2017-01-20T08:39:53.540Z,14.07
2017-01-20T08:41:04.137Z,14.1
2017-01-20T08:42:13.474Z,14.15
2017-01-20T08:43:22.751Z,14.18
2017-01-20T08:44:32.032Z,14.25
2017-01-20T08:45:41.745Z,14.36
2017-01-20T08:46:51.470Z,14.32
2017-01-20T08:48:01.671Z,14.42
2017-01-20T08:49:11.840Z,14.43
2017-01-20T08:50:21.998Z,14.62
2017-01-20T08:51:32.151Z,14.7
2017-01-20T08:52:41.872Z,14.68
2017-01-20T08:53:52.525Z,14.73
2017-01-20T08:55:01.815Z,14.89
2017-01-20T08:56:11.540Z,14.89
2017-01-20T08:57:21.257Z,14.99
2017-01-20T08:58:31.846Z,15.07
2017-01-20T08:59:41.639Z,15.1
2017-01-20T09:00:51.356Z,15.19
2017-01-20T09:02:01.098Z,15.14
2017-01-20T09:03:10.379Z,15.21
2017-01-20T09:04:19.660Z,15.29
2017-01-20T09:05:29.869Z,15.29
2017-01-20T09:06:40.459Z,15.39
2017-01-20T09:07:50.180Z,15.38
2017-01-20T09:08:59.897Z,15.53
2017-01-20T09:10:09.178Z,15.62
2017-01-20T09:11:19.383Z,15.71
2017-01-20T09:12:29.088Z,15.71
2017-01-20T09:13:39.238Z,15.84
2017-01-20T09:14:49.823Z,15.83
2017-01-20T09:16:00.416Z,15.93
2017-01-20T09:17:10.189Z,15.97
2017-01-20T09:18:19.470Z,15.92
2017-01-20T09:19:29.620Z,16.05
2017-01-20T09:20:39.777Z,16.12
2017-01-20T09:21:49.942Z,16.2
2017-01-20T09:23:00.142Z,16.17
2017-01-20T09:24:10.300Z,16.33
2017-01-20T09:25:19.579Z,16.35
2017-01-20T09:26:30.175Z,16.35
2017-01-20T09:27:40.788Z,16.48
2017-01-20T09:28:50.561Z,16.56
2017-01-20T09:30:00.278Z,16.48
2017-01-20T09:31:10.435Z,16.49
2017-01-20T09:32:20.592Z,16.6
2017-01-20T09:33:30.310Z,16.53
2017-01-20T09:34:40.083Z,16.6
2017-01-20T09:35:49.808Z,16.66
2017-01-20T09:36:59.529Z,16.63
2017-01-20T09:38:09.247Z,16.67
2017-01-20T09:39:18.531Z,16.73
2017-01-20T09:40:28.753Z,16.7
2017-01-20T09:41:39.346Z,16.75
2017-01-20T09:42:48.619Z,16.75
2017-01-20T09:43:57.903Z,16.78
2017-01-20T09:45:07.618Z,16.85
2017-01-20T09:46:18.255Z,16.78
2017-01-20T09:47:27.981Z,16.78
2017-01-20T09:48:37.698Z,16.79
2017-01-20T09:49:47.859Z,16.83
2017-01-20T09:50:57.144Z,16.83
2017-01-20T09:52:07.354Z,16.88
2017-01-20T09:53:16.634Z,16.88
2017-01-20T09:54:26.356Z,16.88
2017-01-20T09:55:35.633Z,16.91
2017-01-20T09:56:45.351Z,16.96
2017-01-20T09:57:54.680Z,16.89
2017-01-20T09:59:04.841Z,16.96
2017-01-20T10:00:14.998Z,16.98
2017-01-20T10:01:25.159Z,16.94
2017-01-20T10:02:34.877Z,17.01
2017-01-20T10:03:44.206Z,16.96
2017-01-20T10:04:53.483Z,16.98
2017-01-20T10:06:03.640Z,16.89
2017-01-20T10:07:14.269Z,17.03
2017-01-20T10:08:26.179Z,17.04
2017-01-20T10:09:36.384Z,17.03
2017-01-20T10:10:46.541Z,17.06
2017-01-20T10:11:56.703Z,17.01
2017-01-20T10:13:06.424Z,17.14
2017-01-20T10:14:16.145Z,17.14
2017-01-20T10:15:26.786Z,17.12
2017-01-20T10:16:36.063Z,17.06
2017-01-20T10:17:46.661Z,17.15
2017-01-20T10:18:57.253Z,17.16
2017-01-20T10:20:06.535Z,17.15
2017-01-20T10:21:15.864Z,17.15
2017-01-20T10:22:26.461Z,17.19
2017-01-20T10:23:37.054Z,17.28
2017-01-20T10:24:46.775Z,17.22
2017-01-20T10:25:56.500Z,17.31
2017-01-20T10:27:06.705Z,17.34
2017-01-20T10:28:16.422Z,17.4
2017-01-20T10:29:25.716Z,17.41
2017-01-20T10:30:35.433Z,17.37
2017-01-20T10:31:44.714Z,17.54
2017-01-20T10:32:54.923Z,17.46
2017-01-20T10:34:04.204Z,17.55
2017-01-20T10:35:14.801Z,17.52
2017-01-20T10:36:25.400Z,17.55
2017-01-20T10:37:35.996Z,17.63
2017-01-20T10:38:45.761Z,17.71
2017-01-20T10:39:55.921Z,17.74
2017-01-20T10:41:06.520Z,17.74
2017-01-20T10:42:15.801Z,17.81
2017-01-20T10:43:25.962Z,17.84
2017-01-20T10:44:35.728Z,17.84
2017-01-20T10:45:45.444Z,17.93
2017-01-20T10:46:56.490Z,17.96
2017-01-20T10:48:05.775Z,17.95
2017-01-20T10:49:15.491Z,17.96
2017-01-20T10:50:24.817Z,18.11
2017-01-20T10:51:34.567Z,18.18
2017-01-20T10:52:44.287Z,18.18
2017-01-20T10:53:54.009Z,18.37
2017-01-20T10:55:03.730Z,18.44
2017-01-20T10:56:13.943Z,18.47
2017-01-20T10:57:24.552Z,18.54
2017-01-20T10:58:34.714Z,18.63
2017-01-20T10:59:44.895Z,18.67
2017-01-20T11:00:54.176Z,18.76
2017-01-20T11:02:03.950Z,18.8
2017-01-20T11:03:13.675Z,18.85
2017-01-20T11:04:23.412Z,18.9
2017-01-20T11:05:32.689Z,19.02
2017-01-20T11:06:43.290Z,19.1
2017-01-20T11:07:53.080Z,19.14
2017-01-20T11:09:03.678Z,19.28
2017-01-20T11:10:12.962Z,19.26
2017-01-20T11:11:22.683Z,19.4
2017-01-20T11:12:32.400Z,19.41
2017-01-20T11:13:42.617Z,19.51
2017-01-20T11:14:52.763Z,19.59
2017-01-20T11:16:02.924Z,19.69
2017-01-20T11:17:13.521Z,19.73
2017-01-20T11:18:24.118Z,19.84
2017-01-20T11:19:37.348Z,19.94
2017-01-20T11:20:51.173Z,19.99
2017-01-20T11:22:04.355Z,19.99
2017-01-20T11:23:15.816Z,20.1
2017-01-20T11:24:30.713Z,20.11
2017-01-20T11:25:42.062Z,20.17
2017-01-20T11:26:52.219Z,20.2
2017-01-20T11:28:02.376Z,20.31
2017-01-20T11:29:12.982Z,20.29
2017-01-20T11:30:23.396Z,20.47
2017-01-20T11:31:32.680Z,20.57
2017-01-20T11:32:43.953Z,20.58
2017-01-20T11:33:54.123Z,20.64
2017-01-20T11:35:04.204Z,20.73
2017-01-20T11:36:13.989Z,20.82
2017-01-20T11:37:23.780Z,20.94
2017-01-20T11:38:34.340Z,20.88
2017-01-20T11:39:44.081Z,20.94
2017-01-20T11:40:54.686Z,21.04
2017-01-20T11:42:04.019Z,21.03
2017-01-20T11:43:14.181Z,21.14
2017-01-20T11:44:23.461Z,21.16
2017-01-20T11:45:33.627Z,21.22
2017-01-20T11:46:43.400Z,21.27
2017-01-20T11:47:53.390Z,21.42
2017-01-20T11:49:03.059Z,21.43
2017-01-20T11:50:13.804Z,21.47
2017-01-20T11:51:23.597Z,21.58
2017-01-20T11:52:33.346Z,21.58
2017-01-20T11:53:43.559Z,21.59
2017-01-20T11:54:53.717Z,21.69
2017-01-20T11:56:03.438Z,21.64
2017-01-20T11:57:13.219Z,21.71
2017-01-20T11:58:24.008Z,21.83
2017-01-20T11:59:36.394Z,21.91
2017-01-20T12:00:46.907Z,21.94
2017-01-20T12:01:57.712Z,22.05
2017-01-20T12:03:07.661Z,22.05
2017-01-20T12:04:16.949Z,22.02
2017-01-20T12:05:27.155Z,22.2
2017-01-20T12:06:36.440Z,22.07
2017-01-20T12:07:46.937Z,22.22
2017-01-20T12:08:56.998Z,22.27
2017-01-20T12:10:07.836Z,22.36
2017-01-20T12:11:18.181Z,22.4
2017-01-20T12:12:28.266Z,22.42
2017-01-20T12:13:37.764Z,22.45
2017-01-20T12:14:47.048Z,22.51
2017-01-20T12:15:56.353Z,22.6
2017-01-20T12:17:05.686Z,22.58
2017-01-20T12:18:14.975Z,22.64
2017-01-20T12:19:25.237Z,22.65
2017-01-20T12:20:34.786Z,22.73
2017-01-20T12:21:44.759Z,22.82
2017-01-20T12:22:54.528Z,22.82
2017-01-20T12:24:04.377Z,22.95
2017-01-20T12:25:14.537Z,22.97
2017-01-20T12:26:25.311Z,22.97
2017-01-20T12:27:35.040Z,22.91
2017-01-20T12:28:45.529Z,22.98
2017-01-20T12:29:56.538Z,23.04
2017-01-20T12:31:06.264Z,23.07
2017-01-20T12:32:15.989Z,23.05
2017-01-20T12:33:25.714Z,23.23
2017-01-20T12:34:35.491Z,23.27
2017-01-20T12:35:45.212Z,23.25
2017-01-20T12:36:54.934Z,23.2
2017-01-20T12:38:05.594Z,23.4
2017-01-20T12:39:15.760Z,23.36
2017-01-20T12:40:25.976Z,23.46
2017-01-20T12:41:35.699Z,23.42
2017-01-20T12:42:45.428Z,23.47
2017-01-20T12:43:54.717Z,23.4
2017-01-20T12:45:04.874Z,23.53
2017-01-20T12:46:14.652Z,23.54
2017-01-20T12:47:24.381Z,23.54
2017-01-20T12:48:34.194Z,23.58
2017-01-20T12:49:44.355Z,23.61
2017-01-20T12:50:54.524Z,23.63
2017-01-20T12:52:04.294Z,23.72
2017-01-20T12:53:14.027Z,23.76
2017-01-20T12:54:23.760Z,23.73
2017-01-20T12:55:33.925Z,23.76
2017-01-20T12:56:43.651Z,23.91
2017-01-20T12:57:53.873Z,23.88
2017-01-20T12:59:04.037Z,23.93
2017-01-20T13:00:14.642Z,23.95
2017-01-20T13:01:24.812Z,23.97
2017-01-20T13:02:35.413Z,23.97
2017-01-20T13:03:45.478Z,24.1
2017-01-20T13:04:55.915Z,24.06
2017-01-20T13:06:05.872Z,24.08
2017-01-20T13:07:18.589Z,24.1
2017-01-20T13:08:29.131Z,24.09
2017-01-20T13:09:40.072Z,24.03
2017-01-20T13:10:50.233Z,24.13
2017-01-20T13:12:00.154Z,24.16
2017-01-20T13:13:11.240Z,24.1
2017-01-20T13:14:20.909Z,24.18
2017-01-20T13:15:31.118Z,24.27
2017-01-20T13:16:40.619Z,24.18
2017-01-20T13:17:51.009Z,24.21
2017-01-20T13:19:01.818Z,24.28
2017-01-20T13:20:12.191Z,24.31
2017-01-20T13:21:21.948Z,24.34
2017-01-20T13:22:32.549Z,24.32
2017-01-20T13:23:42.719Z,24.31
2017-01-20T13:24:52.004Z,24.31
2017-01-20T13:26:02.169Z,24.3
2017-01-20T13:27:11.946Z,24.37
2017-01-20T13:28:21.667Z,24.39
2017-01-20T13:29:32.421Z,24.39
2017-01-20T13:30:42.791Z,24.46
2017-01-20T13:31:52.623Z,24.43
2017-01-20T13:33:02.960Z,24.4
2017-01-20T13:34:12.241Z,24.34
2017-01-20T13:35:21.527Z,24.42
2017-01-20T13:36:30.811Z,24.43
2017-01-20T13:37:40.653Z,24.46
2017-01-20T13:38:50.090Z,24.49
2017-01-20T13:40:00.683Z,24.46
2017-01-20T13:41:10.613Z,24.45
2017-01-20T13:42:20.778Z,24.55
2017-01-20T13:43:31.371Z,24.53
2017-01-20T13:44:41.756Z,24.49
2017-01-20T13:45:52.037Z,24.52
2017-01-20T13:47:02.310Z,24.53
2017-01-20T13:48:12.908Z,24.52
2017-01-20T13:49:22.521Z,24.58
2017-01-20T13:50:33.258Z,24.52
2017-01-20T13:51:43.008Z,24.57
2017-01-20T13:52:53.285Z,24.55
2017-01-20T13:54:03.142Z,24.5
2017-01-20T13:55:13.303Z,24.46
2017-01-20T13:56:23.512Z,24.46
2017-01-20T13:57:33.445Z,24.53
2017-01-20T13:58:42.734Z,24.37
2017-01-20T13:59:52.132Z,24.42
2017-01-20T14:01:01.916Z,24.4
2017-01-20T14:02:11.694Z,24.37
2017-01-20T14:03:21.635Z,24.39
2017-01-20T14:04:31.360Z,24.42
2017-01-20T14:05:41.525Z,24.39
2017-01-20T14:06:50.922Z,24.32
2017-01-20T14:08:01.408Z,24.28
2017-01-20T14:09:11.577Z,24.28
2017-01-20T14:10:21.958Z,24.27
2017-01-20T14:11:31.248Z,24.24
2017-01-20T14:12:40.972Z,24.18
2017-01-20T14:13:51.225Z,24.09
2017-01-20T14:15:01.483Z,24.03
2017-01-20T14:16:10.984Z,23.94
2017-01-20T14:17:22.021Z,23.87
2017-01-20T14:18:32.722Z,23.94
2017-01-20T14:19:42.348Z,23.84
2017-01-20T14:20:52.097Z,23.78
2017-01-20T14:22:02.259Z,23.68
2017-01-20T14:23:11.551Z,23.63
2017-01-20T14:24:21.423Z,23.53
2017-01-20T14:25:31.670Z,23.54
2017-01-20T14:26:42.325Z,23.48
2017-01-20T14:27:52.745Z,23.46
2017-01-20T14:29:03.877Z,23.38
2017-01-20T14:30:14.474Z,23.36
2017-01-20T14:31:24.688Z,23.42
2017-01-20T14:32:33.973Z,23.31
2017-01-20T14:33:44.978Z,23.22
2017-01-20T14:34:55.564Z,23.17
2017-01-20T14:36:05.289Z,23.13
2017-01-20T14:37:15.738Z,23.09
2017-01-20T14:38:25.675Z,23.01
2017-01-20T14:39:34.957Z,23
2017-01-20T14:40:45.218Z,22.94
2017-01-20T14:41:54.723Z,22.94
2017-01-20T14:43:04.068Z,22.9
2017-01-20T14:44:13.789Z,22.82
2017-01-20T14:45:24.539Z,22.83
2017-01-20T14:46:34.040Z,22.77
2017-01-20T14:47:44.641Z,22.7
2017-01-20T14:48:55.495Z,22.64
2017-01-20T14:50:05.247Z,22.64
2017-01-20T14:51:15.405Z,22.54
2017-01-20T14:52:25.342Z,22.55
2017-01-20T14:53:35.499Z,22.42
2017-01-20T14:54:45.724Z,22.4
2017-01-20T14:56:02.010Z,22.3
2017-01-20T14:57:18.512Z,22.22
2017-01-20T14:58:34.645Z,22.27
2017-01-20T14:59:47.425Z,22.06
2017-01-20T15:00:57.619Z,22.09
2017-01-20T15:02:08.220Z,22.07
2017-01-20T15:03:18.866Z,22
2017-01-20T15:04:28.971Z,21.91